Time;durP1;ratioP1;P1;durP2;ratioP2;P2;SDS_P1;SDS_P2;PMS_P1;PMS_P2;Temp;Humidity;BMP_temperature;BMP_pressure;BME280_temperature;BME280_humidity;BME280_pressure;Samples;Min_cycle;Max_cycle;Signal;HPM_P1;HPM_P2
2022/04/16 00:00:36;;;;;;;16.93;10.13;;;8.30;99.90;;;;;;4994117;28;20676;-48
2022/04/16 00:03:03;;;;;;;14.13;10.23;;;8.30;99.90;;;;;;5004636;28;20226;-49
2022/04/16 00:05:30;;;;;;;16.97;10.53;;;8.20;99.90;;;;;;5010657;28;20222;-46
2022/04/16 00:08:10;;;;;;;16.67;9.73;;;8.20;99.90;;;;;;4982828;28;20491;-49
2022/04/16 00:10:39;;;;;;;17.17;10.20;;;8.20;99.90;;;;;;5022498;28;20256;-45
2022/04/16 00:13:06;;;;;;;18.30;10.80;;;8.20;99.90;;;;;;5010927;28;20206;-49
2022/04/16 00:15:33;;;;;;;17.10;10.73;;;8.20;99.90;;;;;;4996468;28;20261;-48
2022/04/16 00:18:00;;;;;;;15.27;10.03;;;8.20;99.90;;;;;;5007257;28;20276;-50
2022/04/16 00:20:27;;;;;;;19.40;10.50;;;8.20;99.90;;;;;;5017349;28;20521;-46
2022/04/16 00:22:55;;;;;;;18.80;10.03;;;8.10;99.90;;;;;;4989855;28;20238;-50
2022/04/16 00:25:23;;;;;;;14.73;9.77;;;8.10;99.90;;;;;;5002198;28;20593;-46
2022/04/16 00:27:50;;;;;;;17.37;10.37;;;8.10;99.90;;;;;;5017315;28;20300;-49
2022/04/16 00:30:18;;;;;;;15.43;9.77;;;8.10;99.90;;;;;;4997354;28;20422;-47
2022/04/16 00:32:45;;;;;;;20.73;10.87;;;8.10;99.90;;;;;;4994952;28;20212;-47
2022/04/16 00:35:13;;;;;;;17.33;9.97;;;8.10;99.90;;;;;;5014248;28;20437;-47
2022/04/16 00:37:40;;;;;;;18.40;10.13;;;8.10;99.90;;;;;;5002362;28;20223;-46
2022/04/16 00:40:08;;;;;;;16.03;10.17;;;8.10;99.90;;;;;;5004925;28;20534;-47
2022/04/16 00:42:41;;;;;;;17.07;10.90;;;8.10;99.90;;;;;;5020242;28;20253;-46
2022/04/16 00:45:09;;;;;;;18.37;10.00;;;8.10;99.90;;;;;;5003215;28;20210;-47
2022/04/16 00:47:36;;;;;;;16.50;11.03;;;8.10;99.90;;;;;;4994666;28;20251;-46
2022/04/16 00:50:04;;;;;;;21.07;11.43;;;8.10;99.90;;;;;;5014953;28;20400;-45
2022/04/16 00:52:31;;;;;;;16.87;11.00;;;7.90;99.90;;;;;;5001422;28;20211;-46
2022/04/16 00:54:58;;;;;;;18.17;10.73;;;7.90;99.90;;;;;;5014169;28;20290;-45
2022/04/16 00:57:25;;;;;;;20.53;11.07;;;7.90;99.90;;;;;;5003947;28;20307;-46
2022/04/16 00:59:55;;;;;;;16.13;10.70;;;8.00;99.90;;;;;;5009977;28;20225;-46
2022/04/16 01:02:22;;;;;;;17.23;10.63;;;8.00;99.90;;;;;;5004133;28;20389;-46
2022/04/16 01:04:49;;;;;;;19.13;10.27;;;8.00;99.90;;;;;;4999977;28;20221;-45
2022/04/16 01:07:23;;;;;;;19.37;11.23;;;8.00;99.90;;;;;;5012312;28;20309;-48
2022/04/16 01:09:50;;;;;;;16.90;10.40;;;8.00;99.90;;;;;;4996327;28;20213;-46
2022/04/16 01:12:17;;;;;;;20.77;11.47;;;7.90;99.90;;;;;;5013929;28;20273;-46
2022/04/16 01:14:45;;;;;;;19.57;12.63;;;8.00;99.90;;;;;;5021196;28;20546;-46
2022/04/16 01:17:13;;;;;;;21.40;11.73;;;8.00;99.90;;;;;;4980875;28;20353;-47
2022/04/16 01:19:41;;;;;;;19.03;12.40;;;8.00;99.90;;;;;;5006870;28;20209;-47
2022/04/16 01:22:12;;;;;;;20.80;12.00;;;7.90;99.90;;;;;;5001158;28;20209;-46
2022/04/16 01:24:43;;;;;;;23.47;10.93;;;7.90;99.90;;;;;;5002027;28;20233;-46
2022/04/16 01:27:10;;;;;;;17.67;11.40;;;7.90;99.90;;;;;;5003504;28;20447;-46
2022/04/16 01:29:37;;;;;;;21.67;11.87;;;7.90;99.90;;;;;;5014981;28;20461;-46
2022/04/16 01:32:06;;;;;;;20.27;12.03;;;7.90;99.90;;;;;;4999004;28;20240;-46
2022/04/16 01:34:33;;;;;;;25.10;11.57;;;7.90;99.90;;;;;;5005698;28;20285;-45
2022/04/16 01:37:02;;;;;;;18.60;10.90;;;7.80;99.90;;;;;;5004202;28;20540;-45
2022/04/16 01:39:29;;;;;;;23.63;12.90;;;7.80;99.90;;;;;;4997671;28;20209;-46
2022/04/16 01:41:58;;;;;;;19.50;11.07;;;7.80;99.90;;;;;;5002340;28;20302;-45
2022/04/16 01:44:24;;;;;;;20.17;11.47;;;7.70;99.90;;;;;;5014688;28;20649;-47
2022/04/16 01:46:51;;;;;;;25.77;11.93;;;7.70;99.90;;;;;;5011061;28;20263;-46
2022/04/16 01:49:20;;;;;;;17.23;10.23;;;7.70;99.90;;;;;;4994301;28;20215;-46
2022/04/16 01:51:48;;;;;;;19.07;11.27;;;7.70;99.90;;;;;;5019097;28;20197;-46
2022/04/16 01:54:14;;;;;;;18.87;10.80;;;7.80;99.90;;;;;;4993679;28;20667;-47
2022/04/16 01:56:41;;;;;;;21.50;12.03;;;7.70;99.90;;;;;;5014297;28;20229;-47
2022/04/16 01:59:09;;;;;;;17.57;10.53;;;7.70;99.90;;;;;;5011012;28;20211;-46
2022/04/16 02:01:36;;;;;;;16.47;10.63;;;7.70;99.90;;;;;;4994233;28;20505;-46
2022/04/16 02:04:03;;;;;;;17.80;10.30;;;7.60;99.90;;;;;;5002215;28;20235;-45
2022/04/16 02:06:30;;;;;;;14.70;9.43;;;7.50;99.90;;;;;;4992592;28;20228;-47
2022/04/16 02:08:57;;;;;;;21.13;9.90;;;7.50;99.90;;;;;;5020315;28;20237;-46
2022/04/16 02:11:24;;;;;;;20.70;9.40;;;7.40;99.90;;;;;;5001283;28;20210;-47
2022/04/16 02:13:51;;;;;;;10.93;6.83;;;7.30;99.90;;;;;;5004789;28;20279;-45
2022/04/16 02:16:19;;;;;;;14.30;7.00;;;7.30;99.90;;;;;;5010810;28;20304;-46
2022/04/16 02:18:46;;;;;;;10.83;5.47;;;7.20;99.90;;;;;;5009818;28;20219;-45
2022/04/16 02:21:13;;;;;;;10.67;4.97;;;7.10;99.90;;;;;;4999433;28;20405;-46
2022/04/16 02:23:40;;;;;;;6.50;3.73;;;7.00;99.90;;;;;;5017202;28;20331;-46
2022/04/16 02:26:09;;;;;;;7.57;4.17;;;7.00;99.90;;;;;;4987240;28;21285;-46
2022/04/16 02:28:36;;;;;;;5.50;3.87;;;7.00;99.90;;;;;;5010197;28;20213;-46
2022/04/16 02:31:03;;;;;;;6.60;4.17;;;7.00;99.90;;;;;;5023187;28;20521;-45
2022/04/16 02:36:53;;;;;;;9.40;4.20;;;6.90;99.90;;;;;;5013162;28;20251;-45
2022/04/16 02:39:20;;;;;;;6.93;3.93;;;6.90;99.90;;;;;;5009032;28;20206;-46
2022/04/16 02:41:47;;;;;;;6.80;3.40;;;6.90;99.90;;;;;;5003085;28;20515;-45
2022/04/16 02:47:06;;;;;;;5.83;3.40;;;6.70;99.90;;;;;;5020056;28;20564;-46
2022/04/16 02:49:34;;;;;;;5.63;3.50;;;6.70;99.90;;;;;;5027686;28;20215;-46
2022/04/16 02:52:02;;;;;;;8.67;3.67;;;6.70;99.90;;;;;;5001124;28;20215;-46
2022/04/16 02:54:29;;;;;;;6.00;3.20;;;6.60;99.90;;;;;;5021006;28;20265;-46
2022/04/16 02:56:56;;;;;;;6.20;3.40;;;6.50;99.90;;;;;;4995661;28;20235;-47
2022/04/16 02:59:24;;;;;;;4.60;3.17;;;6.50;99.90;;;;;;5005988;28;20313;-45
2022/04/16 03:01:51;;;;;;;4.87;2.83;;;6.40;99.90;;;;;;5013010;28;20214;-46
2022/04/16 03:04:18;;;;;;;4.83;2.93;;;6.40;99.90;;;;;;5006507;28;20233;-45
2022/04/16 03:06:45;;;;;;;4.70;2.67;;;6.30;99.90;;;;;;4996056;28;20549;-45
2022/04/16 03:09:13;;;;;;;4.00;2.30;;;6.30;99.90;;;;;;5003334;28;20207;-44
2022/04/16 03:11:41;;;;;;;3.67;2.20;;;6.30;99.90;;;;;;4997557;28;20318;-46
2022/04/16 03:19:36;;;;;;;4.23;2.47;;;6.20;99.90;;;;;;5015522;28;20714;-49
2022/04/16 03:22:03;;;;;;;4.40;2.60;;;6.20;99.90;;;;;;4996162;28;20209;-46
2022/04/16 03:24:31;;;;;;;3.73;2.17;;;6.10;99.90;;;;;;5020015;28;20230;-45
2022/04/16 03:26:58;;;;;;;4.90;2.67;;;6.20;99.90;;;;;;4997802;28;20623;-46
2022/04/16 03:29:25;;;;;;;4.30;2.50;;;6.10;99.90;;;;;;5009983;28;20216;-46
2022/04/16 03:31:52;;;;;;;7.57;2.73;;;6.10;99.90;;;;;;5008103;28;20233;-45
2022/04/16 03:34:19;;;;;;;4.90;2.87;;;6.00;99.90;;;;;;5020476;28;20282;-45
2022/04/16 03:36:46;;;;;;;5.57;3.20;;;6.00;99.90;;;;;;4994283;28;20302;-45
2022/04/16 03:39:13;;;;;;;4.07;2.80;;;5.90;99.90;;;;;;5008667;28;20217;-45
2022/04/16 03:41:41;;;;;;;7.47;2.93;;;5.90;99.90;;;;;;5011377;28;20210;-44
2022/04/16 03:44:08;;;;;;;4.33;3.13;;;5.90;99.90;;;;;;4990372;28;20572;-46
2022/04/16 03:46:35;;;;;;;5.47;3.13;;;5.90;99.90;;;;;;5018211;28;20320;-45
2022/04/16 03:49:02;;;;;;;4.63;3.03;;;5.80;99.90;;;;;;5025010;28;20276;-45
2022/04/16 03:51:29;;;;;;;5.27;2.90;;;5.70;99.90;;;;;;5010017;28;20312;-45
2022/04/16 03:53:56;;;;;;;6.97;3.10;;;5.70;99.90;;;;;;4991232;28;20203;-46
2022/04/16 04:01:53;;;;;;;6.53;3.07;;;5.70;99.90;;;;;;5009772;28;20805;-45
2022/04/16 04:04:19;;;;;;;7.33;3.13;;;5.60;99.90;;;;;;5019688;28;20250;-45
2022/04/16 04:06:46;;;;;;;7.00;3.10;;;5.50;99.90;;;;;;4991734;28;20726;-46
2022/04/16 04:09:13;;;;;;;5.93;3.17;;;5.40;99.90;;;;;;5006294;28;20209;-45
2022/04/16 04:11:40;;;;;;;5.57;2.43;;;5.40;99.90;;;;;;5002918;28;20535;-45
2022/04/16 04:14:08;;;;;;;5.70;2.50;;;5.40;99.90;;;;;;5002659;28;20233;-45
2022/04/16 04:16:35;;;;;;;3.63;2.43;;;5.40;99.90;;;;;;5011935;28;20234;-45
2022/04/16 04:19:02;;;;;;;4.03;2.47;;;5.40;99.90;;;;;;5004736;28;21351;-45
2022/04/16 04:21:29;;;;;;;3.50;2.47;;;5.40;99.90;;;;;;5012522;28;20216;-45
2022/04/16 04:23:56;;;;;;;3.37;2.17;;;5.30;99.90;;;;;;5010304;28;21068;-46
2022/04/16 04:26:24;;;;;;;2.63;2.00;;;5.20;99.90;;;;;;5007177;28;20260;-46
2022/04/16 04:28:51;;;;;;;2.87;1.80;;;5.30;99.90;;;;;;5014683;28;20313;-44
2022/04/16 04:31:19;;;;;;;2.87;2.17;;;5.20;99.90;;;;;;4986998;28;20569;-46
2022/04/16 04:33:46;;;;;;;1.70;1.47;;;5.20;99.90;;;;;;5018291;28;20285;-45
2022/04/16 04:36:12;;;;;;;4.10;2.20;;;5.20;99.90;;;;;;5027219;28;20254;-45
2022/04/16 04:38:39;;;;;;;2.80;1.67;;;5.20;99.90;;;;;;5010487;28;20281;-44
2022/04/16 04:41:07;;;;;;;3.63;1.70;;;5.20;99.90;;;;;;5003562;28;20263;-45
2022/04/16 04:43:34;;;;;;;3.53;1.70;;;5.10;99.90;;;;;;5012559;28;20232;-45
2022/04/16 04:46:00;;;;;;;4.27;1.70;;;5.10;99.90;;;;;;5001999;28;20221;-46
2022/04/16 04:48:28;;;;;;;2.87;2.10;;;5.10;99.90;;;;;;5012179;28;20413;-44
2022/04/16 04:50:55;;;;;;;5.53;1.73;;;5.10;99.90;;;;;;5017176;28;20241;-45
2022/04/16 04:53:22;;;;;;;2.93;1.50;;;5.10;99.90;;;;;;5009355;28;20237;-45
2022/04/16 04:55:49;;;;;;;3.53;1.73;;;5.10;99.90;;;;;;4992927;28;20329;-45
2022/04/16 04:58:16;;;;;;;2.20;1.57;;;5.10;99.90;;;;;;5012157;28;20230;-45
2022/04/16 05:00:43;;;;;;;4.77;1.73;;;5.10;99.90;;;;;;4998188;28;20223;-45
2022/04/16 05:03:10;;;;;;;5.77;1.70;;;5.10;99.90;;;;;;5020166;28;20277;-45
2022/04/16 05:05:38;;;;;;;3.33;1.90;;;5.10;99.90;;;;;;5016917;28;20584;-46
2022/04/16 05:08:05;;;;;;;3.57;1.53;;;5.10;99.90;;;;;;4990242;28;20212;-47
2022/04/16 05:10:32;;;;;;;3.23;1.43;;;5.10;99.90;;;;;;5020646;28;20265;-45
2022/04/16 05:12:59;;;;;;;2.23;1.87;;;5.20;99.90;;;;;;4992472;28;20623;-47
2022/04/16 05:15:26;;;;;;;6.70;1.60;;;5.10;99.90;;;;;;5008855;28;20222;-46
2022/04/16 05:17:52;;;;;;;2.10;1.50;;;5.20;99.90;;;;;;4998047;28;20222;-47
2022/04/16 05:20:20;;;;;;;2.23;1.50;;;5.20;99.90;;;;;;5005184;28;20281;-45
2022/04/16 05:22:49;;;;;;;1.87;1.40;;;5.20;99.90;;;;;;5016688;28;20199;-46
2022/04/16 05:25:16;;;;;;;6.60;1.63;;;5.20;99.90;;;;;;5013884;28;21672;-47
2022/04/16 05:27:42;;;;;;;2.77;1.67;;;5.10;99.90;;;;;;4986168;28;20202;-46
2022/04/16 05:30:22;;;;;;;3.20;1.53;;;5.20;99.90;;;;;;5008948;28;20551;-46
2022/04/16 05:32:50;;;;;;;7.13;2.00;;;5.20;99.90;;;;;;5000263;28;20225;-46
2022/04/16 05:35:17;;;;;;;3.03;1.57;;;5.20;99.90;;;;;;5008153;28;20260;-45
2022/04/16 05:37:45;;;;;;;1.43;1.33;;;5.20;99.90;;;;;;5019650;28;20297;-46
2022/04/16 05:40:14;;;;;;;3.23;1.60;;;5.20;99.90;;;;;;5013880;28;20259;-45
2022/04/16 05:42:41;;;;;;;1.63;1.40;;;5.30;99.90;;;;;;4994579;28;20925;-46
2022/04/16 05:45:09;;;;;;;1.60;1.10;;;5.30;99.90;;;;;;5011006;28;20261;-45
2022/04/16 05:47:36;;;;;;;2.70;1.60;;;5.30;99.90;;;;;;4989611;28;20316;-46
2022/04/16 05:50:04;;;;;;;5.43;1.70;;;5.40;99.90;;;;;;5016314;28;20369;-46
2022/04/16 05:52:32;;;;;;;2.20;1.30;;;5.40;99.90;;;;;;5006589;28;20410;-46
2022/04/16 05:54:59;;;;;;;3.90;1.60;;;5.50;99.90;;;;;;5019673;28;20435;-46
2022/04/16 05:57:28;;;;;;;3.43;1.60;;;5.50;99.90;;;;;;4997859;28;20272;-46
2022/04/16 05:59:56;;;;;;;1.77;1.30;;;5.60;99.90;;;;;;5007833;28;20565;-46
2022/04/16 06:02:24;;;;;;;2.10;1.40;;;5.60;99.90;;;;;;4976434;28;20214;-46
2022/04/16 06:04:51;;;;;;;2.20;1.30;;;5.70;99.90;;;;;;4993794;28;20340;-47
2022/04/16 06:07:18;;;;;;;5.20;2.40;;;5.80;99.90;;;;;;4993258;28;20305;-46
2022/04/16 06:09:45;;;;;;;3.83;1.40;;;5.80;99.90;;;;;;5010371;28;20233;-46
2022/04/16 06:12:11;;;;;;;1.80;1.43;;;5.80;99.90;;;;;;4996657;28;20284;-47
2022/04/16 06:14:40;;;;;;;2.57;1.50;;;5.90;99.90;;;;;;5009544;28;20427;-47
2022/04/16 06:17:07;;;;;;;2.37;1.43;;;5.90;99.90;;;;;;4991649;28;20624;-47
2022/04/16 06:19:33;;;;;;;2.77;1.93;;;5.90;99.90;;;;;;5001981;28;20290;-46
2022/04/16 06:22:00;;;;;;;2.90;1.10;;;6.00;99.90;;;;;;5005006;28;20667;-47
2022/04/16 06:24:27;;;;;;;4.47;1.60;;;6.00;99.90;;;;;;4998030;28;20231;-46
2022/04/16 06:26:54;;;;;;;4.10;1.40;;;6.00;99.90;;;;;;5011715;28;20234;-45
2022/04/16 06:29:21;;;;;;;2.70;1.20;;;6.10;99.90;;;;;;4999684;28;20208;-46
2022/04/16 06:31:49;;;;;;;1.47;1.27;;;6.10;99.90;;;;;;4994221;28;20210;-47
2022/04/16 06:34:17;;;;;;;2.90;1.30;;;6.20;99.90;;;;;;4996317;28;21510;-47
2022/04/16 06:36:44;;;;;;;2.47;1.47;;;6.20;99.90;;;;;;4991033;28;20370;-46
2022/04/16 06:39:11;;;;;;;2.03;1.50;;;6.30;99.90;;;;;;5014249;28;20306;-47
2022/04/16 06:41:38;;;;;;;1.37;1.23;;;6.30;99.90;;;;;;5002707;28;20238;-45
2022/04/16 06:44:05;;;;;;;1.67;1.30;;;6.40;99.90;;;;;;5022111;28;20544;-46
2022/04/16 06:46:32;;;;;;;2.77;1.30;;;6.40;99.90;;;;;;4987909;28;20356;-46
2022/04/16 06:49:00;;;;;;;3.90;1.73;;;6.50;99.90;;;;;;5004801;28;20538;-46
2022/04/16 06:51:27;;;;;;;1.50;1.27;;;6.50;99.90;;;;;;4973880;28;20290;-47
2022/04/16 06:53:54;;;;;;;2.33;1.50;;;6.60;99.90;;;;;;5010398;28;20227;-46
2022/04/16 06:56:21;;;;;;;2.30;1.43;;;6.60;99.90;;;;;;4992339;28;20232;-48
2022/04/16 06:58:48;;;;;;;1.80;1.13;;;6.70;99.90;;;;;;5004138;28;20242;-47
2022/04/16 07:01:14;;;;;;;4.07;1.10;;;6.70;99.90;;;;;;4979421;28;20510;-47
2022/04/16 07:03:41;;;;;;;1.70;1.10;;;6.70;99.90;;;;;;5016132;28;20599;-47
2022/04/16 07:06:10;;;;;;;3.43;1.10;;;6.70;99.90;;;;;;4988814;28;20221;-46
2022/04/16 07:08:37;;;;;;;3.50;1.20;;;6.80;99.90;;;;;;5001909;28;20230;-45
2022/04/16 07:11:04;;;;;;;1.27;1.17;;;6.70;99.90;;;;;;4993325;28;21557;-47
2022/04/16 07:13:31;;;;;;;2.13;1.20;;;6.80;99.90;;;;;;5019803;28;20240;-46
2022/04/16 07:15:58;;;;;;;1.10;1.00;;;6.90;99.90;;;;;;4994950;28;20625;-46
2022/04/16 07:18:25;;;;;;;2.50;1.00;;;6.80;99.90;;;;;;5013552;28;20251;-46
2022/04/16 07:20:52;;;;;;;1.10;1.00;;;6.90;99.90;;;;;;4993553;28;20289;-45
2022/04/16 07:23:20;;;;;;;1.37;1.20;;;6.90;99.90;;;;;;5000221;28;20534;-47
2022/04/16 07:25:47;;;;;;;2.47;1.30;;;6.90;99.90;;;;;;5000026;28;20225;-46
2022/04/16 07:28:21;;;;;;;2.33;1.30;;;7.00;99.90;;;;;;5014850;28;20257;-47
2022/04/16 07:30:48;;;;;;;1.10;1.00;;;7.10;99.90;;;;;;4984830;28;20207;-45
2022/04/16 07:33:15;;;;;;;2.73;1.40;;;7.10;99.90;;;;;;4987796;28;20422;-46
2022/04/16 07:35:42;;;;;;;1.80;1.17;;;7.10;99.90;;;;;;4998080;28;20458;-51
2022/04/16 07:38:09;;;;;;;1.87;1.10;;;7.20;99.90;;;;;;4984829;28;20213;-48
2022/04/16 07:40:37;;;;;;;0.87;0.87;;;7.20;99.90;;;;;;4988669;28;20317;-50
2022/04/16 07:43:06;;;;;;;3.10;1.10;;;7.30;99.90;;;;;;4999712;28;20537;-50
2022/04/16 07:45:34;;;;;;;2.43;1.20;;;7.30;99.90;;;;;;5009522;28;20593;-47
2022/04/16 07:48:01;;;;;;;1.07;0.93;;;7.40;99.90;;;;;;4998582;28;20202;-51
2022/04/16 07:50:28;;;;;;;4.03;1.30;;;7.50;99.90;;;;;;5003478;28;20232;-47
2022/04/16 07:52:55;;;;;;;1.50;0.83;;;7.50;99.90;;;;;;4981248;28;20209;-48
2022/04/16 07:55:22;;;;;;;1.03;0.90;;;7.60;99.90;;;;;;4994426;28;20301;-50
2022/04/16 07:57:50;;;;;;;4.03;1.03;;;7.50;99.90;;;;;;4998448;28;20208;-49
2022/04/16 08:00:18;;;;;;;2.40;1.20;;;7.60;99.90;;;;;;4998881;28;20309;-46
2022/04/16 08:02:45;;;;;;;1.70;1.13;;;7.60;99.90;;;;;;5005331;28;20210;-48
2022/04/16 08:05:12;;;;;;;1.23;0.90;;;7.70;99.90;;;;;;5001382;28;20230;-45
2022/04/16 08:07:38;;;;;;;2.67;1.30;;;7.70;99.90;;;;;;4987723;28;20307;-48
2022/04/16 08:10:06;;;;;;;1.57;1.13;;;7.70;99.90;;;;;;4989376;28;20209;-48
2022/04/16 08:12:33;;;;;;;1.47;1.27;;;7.80;99.90;;;;;;4985838;28;20210;-50
2022/04/16 08:15:02;;;;;;;3.30;1.00;;;7.70;99.90;;;;;;5012789;28;20695;-47
2022/04/16 08:17:29;;;;;;;1.70;1.00;;;7.80;99.90;;;;;;5010043;28;20243;-47
2022/04/16 08:19:56;;;;;;;1.23;0.90;;;7.90;99.90;;;;;;4973068;28;20315;-45
2022/04/16 08:22:23;;;;;;;1.00;0.90;;;8.00;99.90;;;;;;4991293;28;20214;-48
2022/04/16 08:25:43;;;;;;;2.80;0.97;;;8.00;99.90;;;;;;4984298;28;20232;-47
2022/04/16 08:27:43;;;;;;;2.10;1.10;;;8.10;99.90;;;;;;5001851;28;20639;-48
2022/04/16 08:30:12;;;;;;;2.10;1.07;;;8.20;99.90;;;;;;4987025;28;20584;-48
2022/04/16 08:32:41;;;;;;;3.77;1.40;;;8.20;99.90;;;;;;5001901;28;20202;-47
2022/04/16 08:35:09;;;;;;;8.80;1.07;;;8.30;99.90;;;;;;4997998;28;20210;-47
2022/04/16 08:37:36;;;;;;;1.47;0.73;;;8.40;99.90;;;;;;4982322;28;20386;-46
2022/04/16 08:40:03;;;;;;;1.43;0.93;;;8.40;99.90;;;;;;4998573;28;20211;-47
2022/04/16 08:42:31;;;;;;;2.67;1.03;;;8.50;99.90;;;;;;5000984;28;20321;-47
2022/04/16 08:44:58;;;;;;;1.80;1.00;;;8.50;99.90;;;;;;4992373;28;20301;-47
2022/04/16 08:47:26;;;;;;;1.13;1.00;;;8.60;99.90;;;;;;5008818;28;20190;-47
2022/04/16 08:49:54;;;;;;;2.70;0.80;;;8.70;99.90;;;;;;5000968;28;21013;-47
2022/04/16 08:52:24;;;;;;;0.80;0.80;;;8.70;99.90;;;;;;4995311;28;20211;-48
2022/04/16 08:54:51;;;;;;;1.23;1.00;;;8.70;99.90;;;;;;4991395;28;20202;-47
2022/04/16 08:57:18;;;;;;;0.90;0.90;;;8.70;99.90;;;;;;4996378;28;24862;-48
2022/04/16 08:59:50;;;;;;;1.70;0.93;;;8.70;99.90;;;;;;5013937;28;20361;-45
2022/04/16 09:02:17;;;;;;;0.93;0.80;;;8.80;99.90;;;;;;5003891;28;20225;-47
2022/04/16 09:04:46;;;;;;;1.13;1.03;;;8.90;99.90;;;;;;5003124;28;20225;-47
2022/04/16 09:07:14;;;;;;;1.10;1.00;;;8.90;99.90;;;;;;4995065;28;20232;-48
2022/04/16 09:09:41;;;;;;;2.00;1.17;;;9.00;99.90;;;;;;4999928;28;21215;-47
2022/04/16 09:12:17;;;;;;;2.60;0.97;;;9.10;99.90;;;;;;4997284;28;20248;-48
2022/04/16 09:14:45;;;;;;;1.27;1.17;;;9.10;99.90;;;;;;5008418;28;20217;-49
2022/04/16 09:17:15;;;;;;;0.70;0.70;;;9.20;99.90;;;;;;4997174;28;20235;-48
2022/04/16 09:19:42;;;;;;;3.37;1.17;;;9.30;99.90;;;;;;5008325;28;20474;-48
2022/04/16 09:22:11;;;;;;;1.77;0.90;;;9.30;99.90;;;;;;5001425;28;20210;-48
2022/04/16 09:24:48;;;;;;;1.40;1.13;;;9.30;99.90;;;;;;5003649;28;20199;-47
2022/04/16 09:27:15;;;;;;;1.37;0.80;;;9.30;99.90;;;;;;4985518;28;20236;-44
2022/04/16 09:29:43;;;;;;;1.17;1.07;;;9.40;99.90;;;;;;5003096;28;20281;-45
2022/04/16 09:32:10;;;;;;;1.33;0.70;;;9.40;99.90;;;;;;5008538;28;20217;-44
2022/04/16 09:34:47;;;;;;;0.63;0.60;;;9.50;99.90;;;;;;5012683;28;20230;-48
2022/04/16 09:37:15;;;;;;;1.03;0.80;;;9.50;99.90;;;;;;4976467;28;20240;-46
2022/04/16 09:39:42;;;;;;;0.80;0.80;;;9.60;99.90;;;;;;5002180;28;20691;-48
2022/04/16 09:42:09;;;;;;;1.77;1.00;;;9.60;99.90;;;;;;4987981;28;20221;-45
2022/04/16 09:44:36;;;;;;;1.40;0.90;;;9.60;99.90;;;;;;4996662;28;20265;-49
2022/04/16 09:47:04;;;;;;;1.73;1.10;;;9.70;99.90;;;;;;5007896;28;20583;-49
2022/04/16 09:49:34;;;;;;;1.70;1.00;;;9.80;99.90;;;;;;4980385;28;21237;-48
2022/04/16 09:52:02;;;;;;;0.90;0.90;;;9.70;99.90;;;;;;5009632;28;20215;-48
2022/04/16 09:54:33;;;;;;;1.00;0.90;;;9.80;99.90;;;;;;4972018;28;20206;-45
2022/04/16 09:57:02;;;;;;;0.57;0.57;;;9.90;99.90;;;;;;5012860;28;20227;-47
2022/04/16 09:59:35;;;;;;;1.37;0.63;;;9.90;99.90;;;;;;4984981;28;21089;-45
2022/04/16 10:02:03;;;;;;;2.60;0.67;;;10.00;99.90;;;;;;5004261;28;20677;-44
2022/04/16 10:04:30;;;;;;;0.70;0.70;;;10.00;99.90;;;;;;5011002;28;20297;-47
2022/04/16 10:06:57;;;;;;;0.80;0.80;;;10.00;99.90;;;;;;5021484;28;20242;-44
2022/04/16 10:09:27;;;;;;;2.30;0.70;;;10.00;99.90;;;;;;4982227;28;20317;-43
2022/04/16 10:14:53;;;;;;;1.73;0.90;;;10.10;99.90;;;;;;4982063;28;20213;-45
2022/04/16 10:17:28;;;;;;;2.33;1.10;;;10.20;99.90;;;;;;4996003;28;20230;-49
2022/04/16 10:20:06;;;;;;;0.87;0.80;;;10.10;99.90;;;;;;5012294;28;20214;-47
2022/04/16 10:22:32;;;;;;;0.77;0.77;;;10.20;99.90;;;;;;4998128;28;20210;-46
2022/04/16 10:24:59;;;;;;;3.03;1.00;;;10.20;99.90;;;;;;4998891;28;20572;-47
2022/04/16 10:27:29;;;;;;;2.28;1.00;;;10.20;99.90;;;;;;4994228;28;20313;-46
2022/04/16 10:30:00;;;;;;;0.80;0.80;;;10.30;99.90;;;;;;4995476;28;20289;-46
2022/04/16 10:32:37;;;;;;;1.53;1.10;;;10.30;99.90;;;;;;5002887;28;20237;-46
2022/04/16 10:35:05;;;;;;;1.85;0.90;;;10.20;99.90;;;;;;5003042;28;20209;-46
2022/04/16 10:37:39;;;;;;;1.60;1.10;;;10.20;99.90;;;;;;5012410;28;21733;-46
2022/04/16 10:40:15;;;;;;;2.37;1.20;;;10.20;99.90;;;;;;5000795;28;20225;-46
2022/04/16 10:42:48;;;;;;;1.47;1.00;;;10.20;99.90;;;;;;5007297;28;20213;-45
2022/04/16 10:45:16;;;;;;;3.37;1.00;;;10.20;99.90;;;;;;4977954;28;20241;-47
2022/04/16 10:47:43;;;;;;;0.80;0.80;;;10.20;99.90;;;;;;4998026;28;20202;-46
2022/04/16 10:50:15;;;;;;;1.37;0.80;;;10.30;99.90;;;;;;5010608;28;21734;-47
2022/04/16 10:52:53;;;;;;;1.07;0.80;;;10.30;99.90;;;;;;5009976;28;20211;-46
2022/04/16 10:55:23;;;;;;;1.20;0.95;;;10.40;99.90;;;;;;5004446;28;20234;-47
2022/04/16 10:57:59;;;;;;;1.07;0.80;;;10.50;99.90;;;;;;4994499;28;20217;-46
2022/04/16 11:00:36;;;;;;;0.80;0.67;;;10.50;99.90;;;;;;4993066;28;20214;-46
2022/04/16 11:03:10;;;;;;;1.00;0.90;;;10.60;99.90;;;;;;5000900;28;20209;-48
2022/04/16 11:05:37;;;;;;;2.45;1.10;;;10.60;99.90;;;;;;4999024;28;20587;-48
2022/04/16 11:08:06;;;;;;;0.80;0.80;;;10.70;99.90;;;;;;5010412;28;20206;-47
2022/04/16 11:10:33;;;;;;;0.80;0.80;;;10.70;99.90;;;;;;4992608;28;20210;-49
2022/04/16 11:13:02;;;;;;;1.42;0.90;;;10.70;99.90;;;;;;5003459;28;20210;-48
2022/04/16 11:15:30;;;;;;;1.45;0.77;;;10.80;99.90;;;;;;5011361;28;20246;-48
2022/04/16 11:17:57;;;;;;;1.77;1.10;;;11.00;99.90;;;;;;5003628;28;20212;-47
2022/04/16 11:20:26;;;;;;;1.02;0.85;;;10.90;99.90;;;;;;5005017;28;20292;-48
2022/04/16 11:22:54;;;;;;;0.73;0.73;;;10.80;99.90;;;;;;5000362;28;20202;-48
2022/04/16 11:25:23;;;;;;;4.57;0.70;;;10.90;99.90;;;;;;5005180;28;20231;-47
2022/04/16 11:36:07;;;;;;;0.50;0.50;;;11.10;99.90;;;;;;4996659;28;20232;-48
2022/04/16 11:38:36;;;;;;;1.02;0.75;;;11.10;99.90;;;;;;5018228;28;20216;-48
2022/04/16 11:41:05;;;;;;;0.40;0.40;;;11.10;99.90;;;;;;5011857;28;22688;-48
2022/04/16 11:43:33;;;;;;;1.02;0.80;;;11.20;99.90;;;;;;5006772;28;20434;-46
2022/04/16 11:46:02;;;;;;;0.95;0.60;;;11.20;99.90;;;;;;5001381;28;20254;-45
2022/04/16 11:48:31;;;;;;;0.55;0.55;;;11.20;99.90;;;;;;5000910;28;20211;-45
2022/04/16 11:50:58;;;;;;;0.70;0.70;;;11.10;99.90;;;;;;5008315;28;20217;-47
2022/04/16 11:53:25;;;;;;;1.25;0.70;;;11.10;99.90;;;;;;5004868;28;20231;-48
2022/04/16 11:55:53;;;;;;;0.80;0.40;;;11.10;99.90;;;;;;5000606;28;20230;-45
2022/04/16 11:58:27;;;;;;;3.10;0.60;;;11.30;99.90;;;;;;4999417;28;20202;-48
2022/04/16 12:00:55;;;;;;;0.73;0.70;;;11.50;99.90;;;;;;4991785;28;20227;-48
2022/04/16 12:03:34;;;;;;;2.10;1.00;;;11.60;99.90;;;;;;4998240;28;20492;-48
2022/04/16 12:06:01;;;;;;;0.75;0.60;;;11.50;99.90;;;;;;5008011;28;20243;-47
2022/04/16 12:08:28;;;;;;;0.90;0.80;;;11.50;99.90;;;;;;4999109;28;20487;-47
2022/04/16 12:10:56;;;;;;;0.73;0.70;;;11.50;99.90;;;;;;5011727;28;20514;-48
2022/04/16 12:13:22;;;;;;;1.65;0.95;;;11.40;99.90;;;;;;4989884;28;20240;-49
2022/04/16 12:15:50;;;;;;;1.38;0.75;;;11.50;99.90;;;;;;5002937;28;20226;-47
2022/04/16 12:18:19;;;;;;;1.75;1.25;;;11.50;99.90;;;;;;4995260;28;20210;-49
2022/04/16 12:20:49;;;;;;;0.73;0.73;;;11.80;99.90;;;;;;5003666;28;20436;-47
2022/04/16 12:23:20;;;;;;;0.90;0.90;;;11.70;99.90;;;;;;5008063;28;20217;-47
2022/04/16 12:25:48;;;;;;;1.75;1.20;;;11.80;99.90;;;;;;5006507;28;20574;-47
2022/04/16 12:28:15;;;;;;;1.13;0.75;;;11.80;99.90;;;;;;5001410;28;20532;-46
2022/04/16 12:30:50;;;;;;;0.80;0.80;;;11.80;99.90;;;;;;5002988;28;20547;-50
2022/04/16 12:33:17;;;;;;;1.40;0.80;;;11.60;99.90;;;;;;4993990;28;20443;-46
2022/04/16 12:35:45;;;;;;;8.15;1.10;;;11.60;99.90;;;;;;5015790;28;20249;-51
2022/04/16 12:38:17;;;;;;;0.43;0.43;;;11.60;99.90;;;;;;5001422;28;20236;-46
2022/04/16 12:40:45;;;;;;;0.75;0.70;;;11.70;99.90;;;;;;4994400;28;20527;-48
2022/04/16 12:43:12;;;;;;;2.67;1.30;;;11.80;99.90;;;;;;4985230;28;20533;-46
2022/04/16 12:45:39;;;;;;;0.70;0.70;;;11.80;99.90;;;;;;5004101;28;20260;-46
2022/04/16 12:48:07;;;;;;;1.08;0.65;;;11.90;99.90;;;;;;4994428;28;20569;-45
2022/04/16 12:50:34;;;;;;;2.03;0.80;;;11.90;99.90;;;;;;4990336;28;20243;-47
2022/04/16 12:53:01;;;;;;;1.15;0.93;;;11.90;99.90;;;;;;4987988;28;20213;-46
2022/04/16 12:55:29;;;;;;;5.97;0.88;;;11.90;99.90;;;;;;5012982;28;20388;-47
2022/04/16 12:57:56;;;;;;;1.85;1.17;;;11.90;99.90;;;;;;5000720;28;20209;-46
2022/04/16 13:00:24;;;;;;;0.68;0.68;;;11.90;99.90;;;;;;5010088;28;20198;-47
2022/04/16 13:02:50;;;;;;;1.08;0.80;;;11.90;99.90;;;;;;4991706;28;20715;-47
2022/04/16 13:05:19;;;;;;;3.92;0.60;;;12.00;99.90;;;;;;4988356;28;20241;-47
2022/04/16 13:07:46;;;;;;;2.90;0.80;;;12.10;99.90;;;;;;4997475;28;20609;-47
2022/04/16 13:10:15;;;;;;;0.75;0.70;;;12.10;99.90;;;;;;4985688;28;20212;-48
2022/04/16 13:12:43;;;;;;;0.80;0.70;;;12.20;99.90;;;;;;4997566;28;20294;-47
2022/04/16 13:15:11;;;;;;;0.80;0.80;;;12.10;99.90;;;;;;4987994;28;21090;-47
2022/04/16 13:17:39;;;;;;;1.02;0.90;;;12.10;99.90;;;;;;4997693;28;20564;-47
2022/04/16 13:20:08;;;;;;;1.17;0.85;;;12.10;99.90;;;;;;4987612;28;20210;-47
2022/04/16 13:22:35;;;;;;;7.68;0.98;;;12.20;99.90;;;;;;5006984;28;20210;-47